Pagrindinis puslapis
METAR-TAF:

METAR-TAF

Oro uostai :

Mineralnye Vody, Rusija

platuma: 44-14N, ilguma: 043-04E, Aukštis: 314 m

Dabartinis oras

Ataskaita buvo paskelbta 35 minutes, ne 12:00 UTC
Vėjas 8 kt iš Rytų/Šiaurės Rytų
Temperatūra 11°C
Drėgmė 62%
Slėgis 1013 hPa
Matomumas 10 km arba daugiau

METAR: URMM 281200Z 07004MPS 9999 NSC 11/04 Q1013 R12/090070 NOSIG RMK QFE732/0976

Laikas: 16:35 (12:35 UTC)

Prognozė

Ataskaita buvo paskelbta 1 valandą ir 35 minutes, ne 11:00 UTC
Prognozė galioja nuo 28 metu 12 UTC su 29 metu 12 UTC
Vėjas 6 kt iš Rytų su gūsio iki 16 kt
Matomumas 10 km arba daugiau
Su prošvaistėmis ne aukštis 1600 ft
Laikinai
nuo 28 metu 18 UTC su 29 metu 06 UTC
Matomumas: 6000 m
Su prošvaistėmis ne aukštis 1600 ft
Su prošvaistėmis ne aukštis 2000 ft, Liūtiniai kamuoliniai debesys.
lietus

TAF: URMM 281100Z 2812/2912 10003G08MPS 9999 BKN016 TX14/2911Z TN01/2902Z TEMPO 2818/2906 6000 -SHRA BKN016 BKN020CB

Orai ataskaitas ir orų prognozės (METAR, TAF).

turimą stotys yra geltonos ir raudonos taškus žemėlapyje.

Perkelti pele per norėdami pamatyti stoties vardą.

Tada spustelėkite, norėdami matyti oro stebėjimo ir prognozės.

Norėdami pakeisti žemėlapį: spustelėkite ant žalios mygtukų su juodo kryžiaus žemyn,; žalią mygtuką su brūkšneliu, jei norite nutolinti; arba žalių rodyklių gretimoms žemėlapius.


METAR-TAF: